sensor_id;sensor_type;location;lat;lon;timestamp;temperature;humidity
36990;DHT22;22898;52.102;5.776;2023-07-22T00:00:26;23.50;85.70
36990;DHT22;22898;52.102;5.776;2023-07-22T00:02:51;23.40;85.50
36990;DHT22;22898;52.102;5.776;2023-07-22T00:05:17;23.50;85.30
36990;DHT22;22898;52.102;5.776;2023-07-22T00:07:51;23.30;85.80
36990;DHT22;22898;52.102;5.776;2023-07-22T00:10:16;23.30;85.80
36990;DHT22;22898;52.102;5.776;2023-07-22T00:12:42;23.20;85.50
36990;DHT22;22898;52.102;5.776;2023-07-22T00:15:08;23.20;85.60
36990;DHT22;22898;52.102;5.776;2023-07-22T00:17:37;23.10;86.90
36990;DHT22;22898;52.102;5.776;2023-07-22T00:20:03;23.10;86.10
36990;DHT22;22898;52.102;5.776;2023-07-22T00:22:30;23.00;86.20
36990;DHT22;22898;52.102;5.776;2023-07-22T00:24:55;23.00;86.10
36990;DHT22;22898;52.102;5.776;2023-07-22T00:27:21;23.00;86.10
36990;DHT22;22898;52.102;5.776;2023-07-22T00:29:46;22.90;86.20
36990;DHT22;22898;52.102;5.776;2023-07-22T00:32:12;22.90;86.40
36990;DHT22;22898;52.102;5.776;2023-07-22T00:34:39;22.80;86.30
36990;DHT22;22898;52.102;5.776;2023-07-22T00:37:04;22.80;86.20
36990;DHT22;22898;52.102;5.776;2023-07-22T00:39:30;22.90;86.00
36990;DHT22;22898;52.102;5.776;2023-07-22T00:41:55;22.80;86.30
36990;DHT22;22898;52.102;5.776;2023-07-22T00:44:21;22.70;86.40
36990;DHT22;22898;52.102;5.776;2023-07-22T00:46:46;22.80;86.10
36990;DHT22;22898;52.102;5.776;2023-07-22T00:49:14;22.70;86.20
36990;DHT22;22898;52.102;5.776;2023-07-22T00:51:40;22.70;86.20
36990;DHT22;22898;52.102;5.776;2023-07-22T00:54:06;22.60;86.60
36990;DHT22;22898;52.102;5.776;2023-07-22T00:56:35;22.60;86.60
36990;DHT22;22898;52.102;5.776;2023-07-22T00:59:02;22.50;86.70
36990;DHT22;22898;52.102;5.776;2023-07-22T01:01:27;22.60;86.60
36990;DHT22;22898;52.102;5.776;2023-07-22T01:03:54;22.50;86.60
36990;DHT22;22898;52.102;5.776;2023-07-22T01:06:19;22.50;86.60
36990;DHT22;22898;52.102;5.776;2023-07-22T01:08:46;22.40;86.90
36990;DHT22;22898;52.102;5.776;2023-07-22T01:11:14;22.40;87.10
36990;DHT22;22898;52.102;5.776;2023-07-22T01:13:40;22.30;87.20
36990;DHT22;22898;52.102;5.776;2023-07-22T01:16:06;22.20;87.90
36990;DHT22;22898;52.102;5.776;2023-07-22T01:18:33;22.10;87.90
36990;DHT22;22898;52.102;5.776;2023-07-22T01:20:59;22.10;88.00
36990;DHT22;22898;52.102;5.776;2023-07-22T01:23:25;22.10;88.10
36990;DHT22;22898;52.102;5.776;2023-07-22T01:25:50;22.20;87.70
36990;DHT22;22898;52.102;5.776;2023-07-22T01:28:16;22.20;87.60
36990;DHT22;22898;52.102;5.776;2023-07-22T01:30:42;22.20;87.10
36990;DHT22;22898;52.102;5.776;2023-07-22T01:33:08;22.20;87.00
36990;DHT22;22898;52.102;5.776;2023-07-22T01:35:33;22.20;87.00
36990;DHT22;22898;52.102;5.776;2023-07-22T01:37:59;22.20;87.80
36990;DHT22;22898;52.102;5.776;2023-07-22T01:40:25;22.20;87.10
36990;DHT22;22898;52.102;5.776;2023-07-22T01:42:51;22.20;87.10
36990;DHT22;22898;52.102;5.776;2023-07-22T01:45:17;22.10;87.00
36990;DHT22;22898;52.102;5.776;2023-07-22T01:47:42;22.10;87.20
36990;DHT22;22898;52.102;5.776;2023-07-22T01:50:08;22.20;86.80
36990;DHT22;22898;52.102;5.776;2023-07-22T01:52:35;22.20;86.80
36990;DHT22;22898;52.102;5.776;2023-07-22T01:55:01;22.20;87.00
36990;DHT22;22898;52.102;5.776;2023-07-22T01:57:26;22.10;87.20
36990;DHT22;22898;52.102;5.776;2023-07-22T01:59:52;22.10;87.30
36990;DHT22;22898;52.102;5.776;2023-07-22T02:02:19;22.20;87.60
36990;DHT22;22898;52.102;5.776;2023-07-22T02:04:45;22.10;87.60
36990;DHT22;22898;52.102;5.776;2023-07-22T02:07:11;22.20;87.40
36990;DHT22;22898;52.102;5.776;2023-07-22T02:09:36;22.20;87.40
36990;DHT22;22898;52.102;5.776;2023-07-22T02:12:02;22.20;87.30
36990;DHT22;22898;52.102;5.776;2023-07-22T02:14:28;22.20;87.10
36990;DHT22;22898;52.102;5.776;2023-07-22T02:16:53;22.10;87.20
36990;DHT22;22898;52.102;5.776;2023-07-22T02:19:19;22.20;87.00
36990;DHT22;22898;52.102;5.776;2023-07-22T02:21:45;22.20;86.90
36990;DHT22;22898;52.102;5.776;2023-07-22T02:24:10;22.10;86.70
36990;DHT22;22898;52.102;5.776;2023-07-22T02:26:36;22.10;86.90
36990;DHT22;22898;52.102;5.776;2023-07-22T02:29:02;22.10;86.90
36990;DHT22;22898;52.102;5.776;2023-07-22T02:31:27;22.00;87.00
36990;DHT22;22898;52.102;5.776;2023-07-22T02:33:53;22.00;87.00
36990;DHT22;22898;52.102;5.776;2023-07-22T02:36:19;22.00;87.30
36990;DHT22;22898;52.102;5.776;2023-07-22T02:38:44;21.90;87.40
36990;DHT22;22898;52.102;5.776;2023-07-22T02:41:10;22.00;87.20
36990;DHT22;22898;52.102;5.776;2023-07-22T02:43:36;21.80;87.20
36990;DHT22;22898;52.102;5.776;2023-07-22T02:46:03;21.80;87.30
36990;DHT22;22898;52.102;5.776;2023-07-22T02:48:30;21.70;87.90
36990;DHT22;22898;52.102;5.776;2023-07-22T02:51:05;21.70;87.90
36990;DHT22;22898;52.102;5.776;2023-07-22T02:53:32;21.60;87.80
36990;DHT22;22898;52.102;5.776;2023-07-22T02:55:59;21.60;88.20
36990;DHT22;22898;52.102;5.776;2023-07-22T02:58:24;21.60;88.00
36990;DHT22;22898;52.102;5.776;2023-07-22T03:00:50;21.60;88.10
36990;DHT22;22898;52.102;5.776;2023-07-22T03:03:15;21.60;88.10
36990;DHT22;22898;52.102;5.776;2023-07-22T03:05:41;21.60;87.90
36990;DHT22;22898;52.102;5.776;2023-07-22T03:08:06;21.50;87.50
36990;DHT22;22898;52.102;5.776;2023-07-22T03:10:32;21.50;87.60
36990;DHT22;22898;52.102;5.776;2023-07-22T03:12:58;21.50;87.70
36990;DHT22;22898;52.102;5.776;2023-07-22T03:15:25;21.50;87.70
36990;DHT22;22898;52.102;5.776;2023-07-22T03:17:54;21.40;88.40
36990;DHT22;22898;52.102;5.776;2023-07-22T03:20:21;21.40;88.80
36990;DHT22;22898;52.102;5.776;2023-07-22T03:22:47;21.40;89.00
36990;DHT22;22898;52.102;5.776;2023-07-22T03:25:14;21.40;88.60
36990;DHT22;22898;52.102;5.776;2023-07-22T03:27:42;21.40;88.80
36990;DHT22;22898;52.102;5.776;2023-07-22T03:30:10;21.40;89.10
36990;DHT22;22898;52.102;5.776;2023-07-22T03:32:36;21.50;89.00
36990;DHT22;22898;52.102;5.776;2023-07-22T03:35:02;21.40;89.00
36990;DHT22;22898;52.102;5.776;2023-07-22T03:37:29;21.40;89.00
36990;DHT22;22898;52.102;5.776;2023-07-22T03:39:54;21.30;89.10
36990;DHT22;22898;52.102;5.776;2023-07-22T03:42:20;21.30;89.40
36990;DHT22;22898;52.102;5.776;2023-07-22T03:44:46;21.30;89.30
36990;DHT22;22898;52.102;5.776;2023-07-22T03:47:11;21.30;89.40
36990;DHT22;22898;52.102;5.776;2023-07-22T03:49:37;21.30;89.40
36990;DHT22;22898;52.102;5.776;2023-07-22T03:52:02;21.30;89.40
36990;DHT22;22898;52.102;5.776;2023-07-22T03:54:28;21.30;89.40
36990;DHT22;22898;52.102;5.776;2023-07-22T03:56:54;21.30;89.70
36990;DHT22;22898;52.102;5.776;2023-07-22T03:59:19;21.40;90.00
36990;DHT22;22898;52.102;5.776;2023-07-22T04:01:45;21.50;90.00
36990;DHT22;22898;52.102;5.776;2023-07-22T04:04:12;21.50;90.00
36990;DHT22;22898;52.102;5.776;2023-07-22T04:06:37;21.50;90.00
36990;DHT22;22898;52.102;5.776;2023-07-22T04:09:03;21.40;90.00
36990;DHT22;22898;52.102;5.776;2023-07-22T04:11:28;21.40;90.10
36990;DHT22;22898;52.102;5.776;2023-07-22T04:13:54;21.50;90.00
36990;DHT22;22898;52.102;5.776;2023-07-22T04:16:20;21.50;90.10
36990;DHT22;22898;52.102;5.776;2023-07-22T04:18:45;21.50;90.10
36990;DHT22;22898;52.102;5.776;2023-07-22T04:21:11;21.60;90.00
36990;DHT22;22898;52.102;5.776;2023-07-22T04:23:36;21.60;90.00
36990;DHT22;22898;52.102;5.776;2023-07-22T04:26:03;21.60;90.10
36990;DHT22;22898;52.102;5.776;2023-07-22T04:28:33;21.60;90.10
36990;DHT22;22898;52.102;5.776;2023-07-22T04:31:00;21.60;90.10
36990;DHT22;22898;52.102;5.776;2023-07-22T04:33:26;21.60;90.10
36990;DHT22;22898;52.102;5.776;2023-07-22T04:35:55;21.70;90.20
36990;DHT22;22898;52.102;5.776;2023-07-22T04:38:21;21.70;90.30
36990;DHT22;22898;52.102;5.776;2023-07-22T04:40:46;21.70;90.40
36990;DHT22;22898;52.102;5.776;2023-07-22T04:43:12;21.80;90.30
36990;DHT22;22898;52.102;5.776;2023-07-22T04:45:37;21.80;90.30
36990;DHT22;22898;52.102;5.776;2023-07-22T04:48:06;21.80;90.30
36990;DHT22;22898;52.102;5.776;2023-07-22T04:50:32;21.90;90.40
36990;DHT22;22898;52.102;5.776;2023-07-22T04:52:57;21.90;90.30
36990;DHT22;22898;52.102;5.776;2023-07-22T04:55:23;22.00;90.50
36990;DHT22;22898;52.102;5.776;2023-07-22T04:57:49;22.10;90.50
36990;DHT22;22898;52.102;5.776;2023-07-22T05:00:17;22.20;90.50
36990;DHT22;22898;52.102;5.776;2023-07-22T05:02:44;22.30;90.40
36990;DHT22;22898;52.102;5.776;2023-07-22T05:05:11;22.30;90.50
36990;DHT22;22898;52.102;5.776;2023-07-22T05:07:37;22.30;90.70
36990;DHT22;22898;52.102;5.776;2023-07-22T05:10:02;22.30;90.70
36990;DHT22;22898;52.102;5.776;2023-07-22T05:12:28;22.40;90.70
36990;DHT22;22898;52.102;5.776;2023-07-22T05:14:54;22.40;90.80
36990;DHT22;22898;52.102;5.776;2023-07-22T05:17:19;22.50;90.90
36990;DHT22;22898;52.102;5.776;2023-07-22T05:19:45;22.50;91.00
36990;DHT22;22898;52.102;5.776;2023-07-22T05:22:11;22.50;91.10
36990;DHT22;22898;52.102;5.776;2023-07-22T05:24:36;22.60;91.10
36990;DHT22;22898;52.102;5.776;2023-07-22T05:27:02;22.60;91.10
36990;DHT22;22898;52.102;5.776;2023-07-22T05:29:27;22.70;91.10
36990;DHT22;22898;52.102;5.776;2023-07-22T05:31:53;22.80;91.20
36990;DHT22;22898;52.102;5.776;2023-07-22T05:34:18;22.90;91.20
36990;DHT22;22898;52.102;5.776;2023-07-22T05:36:44;22.90;91.40
36990;DHT22;22898;52.102;5.776;2023-07-22T05:39:10;23.00;91.50
36990;DHT22;22898;52.102;5.776;2023-07-22T05:41:36;23.10;91.50
36990;DHT22;22898;52.102;5.776;2023-07-22T05:44:01;23.30;91.30
36990;DHT22;22898;52.102;5.776;2023-07-22T05:46:27;23.40;91.30
36990;DHT22;22898;52.102;5.776;2023-07-22T05:48:53;23.50;91.10
36990;DHT22;22898;52.102;5.776;2023-07-22T05:51:18;23.50;91.20
36990;DHT22;22898;52.102;5.776;2023-07-22T05:53:44;23.60;91.10
36990;DHT22;22898;52.102;5.776;2023-07-22T05:56:10;23.70;91.10
36990;DHT22;22898;52.102;5.776;2023-07-22T05:58:36;23.60;91.10
36990;DHT22;22898;52.102;5.776;2023-07-22T06:01:01;23.70;91.40
36990;DHT22;22898;52.102;5.776;2023-07-22T06:03:27;23.70;91.40
36990;DHT22;22898;52.102;5.776;2023-07-22T06:05:53;23.50;91.70
36990;DHT22;22898;52.102;5.776;2023-07-22T06:08:19;23.50;91.80
36990;DHT22;22898;52.102;5.776;2023-07-22T06:10:45;23.40;92.30
36990;DHT22;22898;52.102;5.776;2023-07-22T06:13:10;23.50;92.20
36990;DHT22;22898;52.102;5.776;2023-07-22T06:15:36;23.60;92.10
36990;DHT22;22898;52.102;5.776;2023-07-22T06:18:02;23.80;91.90
36990;DHT22;22898;52.102;5.776;2023-07-22T06:20:28;23.90;91.70
36990;DHT22;22898;52.102;5.776;2023-07-22T06:22:54;24.00;91.50
36990;DHT22;22898;52.102;5.776;2023-07-22T06:25:20;23.60;92.10
36990;DHT22;22898;52.102;5.776;2023-07-22T06:27:45;23.40;92.50
36990;DHT22;22898;52.102;5.776;2023-07-22T06:30:11;23.50;92.40
36990;DHT22;22898;52.102;5.776;2023-07-22T06:32:38;22.90;93.50
36990;DHT22;22898;52.102;5.776;2023-07-22T06:35:04;22.70;94.20
36990;DHT22;22898;52.102;5.776;2023-07-22T06:37:30;22.60;94.50
36990;DHT22;22898;52.102;5.776;2023-07-22T06:39:56;22.70;94.50
36990;DHT22;22898;52.102;5.776;2023-07-22T06:42:21;23.10;93.90
36990;DHT22;22898;52.102;5.776;2023-07-22T06:44:47;23.30;93.70
36990;DHT22;22898;52.102;5.776;2023-07-22T06:47:13;23.40;93.40
36990;DHT22;22898;52.102;5.776;2023-07-22T06:49:39;23.60;93.20
36990;DHT22;22898;52.102;5.776;2023-07-22T06:52:06;23.70;92.80
36990;DHT22;22898;52.102;5.776;2023-07-22T06:54:32;23.30;94.10
36990;DHT22;22898;52.102;5.776;2023-07-22T06:56:57;23.00;94.20
36990;DHT22;22898;52.102;5.776;2023-07-22T06:59:23;23.10;94.30
36990;DHT22;22898;52.102;5.776;2023-07-22T07:01:48;23.30;93.90
36990;DHT22;22898;52.102;5.776;2023-07-22T07:04:14;23.70;93.70
36990;DHT22;22898;52.102;5.776;2023-07-22T07:06:40;23.90;93.20
36990;DHT22;22898;52.102;5.776;2023-07-22T07:09:06;24.30;92.70
36990;DHT22;22898;52.102;5.776;2023-07-22T07:11:31;24.40;91.70
36990;DHT22;22898;52.102;5.776;2023-07-22T07:13:57;24.00;92.20
36990;DHT22;22898;52.102;5.776;2023-07-22T07:16:25;23.80;92.80
36990;DHT22;22898;52.102;5.776;2023-07-22T07:18:51;24.10;92.40
36990;DHT22;22898;52.102;5.776;2023-07-22T07:21:18;24.10;92.50
36990;DHT22;22898;52.102;5.776;2023-07-22T07:23:44;24.30;92.10
36990;DHT22;22898;52.102;5.776;2023-07-22T07:26:09;24.70;91.20
36990;DHT22;22898;52.102;5.776;2023-07-22T07:28:35;25.10;91.00
36990;DHT22;22898;52.102;5.776;2023-07-22T07:31:01;25.10;90.50
36990;DHT22;22898;52.102;5.776;2023-07-22T07:33:28;25.10;90.40
36990;DHT22;22898;52.102;5.776;2023-07-22T07:35:53;25.00;90.70
36990;DHT22;22898;52.102;5.776;2023-07-22T07:38:19;25.20;90.30
36990;DHT22;22898;52.102;5.776;2023-07-22T07:40:44;24.80;90.60
36990;DHT22;22898;52.102;5.776;2023-07-22T07:43:10;24.70;91.20
36990;DHT22;22898;52.102;5.776;2023-07-22T07:45:39;24.80;91.00
36990;DHT22;22898;52.102;5.776;2023-07-22T07:48:05;24.70;91.20
36990;DHT22;22898;52.102;5.776;2023-07-22T07:50:32;24.40;91.50
36990;DHT22;22898;52.102;5.776;2023-07-22T07:52:58;24.10;92.20
36990;DHT22;22898;52.102;5.776;2023-07-22T07:55:25;23.90;92.00
36990;DHT22;22898;52.102;5.776;2023-07-22T07:57:50;23.80;92.80
36990;DHT22;22898;52.102;5.776;2023-07-22T08:00:16;24.10;92.60
36990;DHT22;22898;52.102;5.776;2023-07-22T08:02:42;24.40;92.10
36990;DHT22;22898;52.102;5.776;2023-07-22T08:05:07;24.80;91.10
36990;DHT22;22898;52.102;5.776;2023-07-22T08:07:33;24.90;90.30
36990;DHT22;22898;52.102;5.776;2023-07-22T08:09:59;24.70;91.20
36990;DHT22;22898;52.102;5.776;2023-07-22T08:12:24;24.50;91.20
36990;DHT22;22898;52.102;5.776;2023-07-22T08:14:53;24.20;91.60
36990;DHT22;22898;52.102;5.776;2023-07-22T08:17:18;24.70;91.50
36990;DHT22;22898;52.102;5.776;2023-07-22T08:19:44;25.40;88.20
36990;DHT22;22898;52.102;5.776;2023-07-22T08:22:09;25.50;88.20
36990;DHT22;22898;52.102;5.776;2023-07-22T08:24:35;25.10;89.80
36990;DHT22;22898;52.102;5.776;2023-07-22T08:27:00;24.90;87.80
36990;DHT22;22898;52.102;5.776;2023-07-22T08:29:26;24.40;90.00
36990;DHT22;22898;52.102;5.776;2023-07-22T08:31:51;24.40;90.50
36990;DHT22;22898;52.102;5.776;2023-07-22T08:34:17;24.40;90.10
36990;DHT22;22898;52.102;5.776;2023-07-22T08:36:42;24.60;90.30
36990;DHT22;22898;52.102;5.776;2023-07-22T08:39:09;24.10;90.10
36990;DHT22;22898;52.102;5.776;2023-07-22T08:41:35;23.80;90.80
36990;DHT22;22898;52.102;5.776;2023-07-22T08:44:02;23.80;90.70
36990;DHT22;22898;52.102;5.776;2023-07-22T08:46:29;24.40;90.40
36990;DHT22;22898;52.102;5.776;2023-07-22T08:48:56;24.20;89.20
36990;DHT22;22898;52.102;5.776;2023-07-22T08:51:25;24.20;88.40
36990;DHT22;22898;52.102;5.776;2023-07-22T08:53:53;24.50;87.60
36990;DHT22;22898;52.102;5.776;2023-07-22T08:56:25;24.70;87.50
36990;DHT22;22898;52.102;5.776;2023-07-22T08:58:51;25.00;86.60
36990;DHT22;22898;52.102;5.776;2023-07-22T09:01:18;25.40;84.80
36990;DHT22;22898;52.102;5.776;2023-07-22T09:03:43;25.20;85.50
36990;DHT22;22898;52.102;5.776;2023-07-22T09:06:10;24.30;86.70
36990;DHT22;22898;52.102;5.776;2023-07-22T09:08:36;23.90;88.20
36990;DHT22;22898;52.102;5.776;2023-07-22T09:11:02;23.90;89.40
36990;DHT22;22898;52.102;5.776;2023-07-22T09:13:28;24.20;90.00
36990;DHT22;22898;52.102;5.776;2023-07-22T09:15:57;24.90;88.90
36990;DHT22;22898;52.102;5.776;2023-07-22T09:18:22;25.10;86.10
36990;DHT22;22898;52.102;5.776;2023-07-22T09:20:48;25.50;85.70
36990;DHT22;22898;52.102;5.776;2023-07-22T09:23:13;25.40;84.30
36990;DHT22;22898;52.102;5.776;2023-07-22T09:25:40;25.70;84.90
36990;DHT22;22898;52.102;5.776;2023-07-22T09:28:05;25.90;85.60
36990;DHT22;22898;52.102;5.776;2023-07-22T09:30:33;26.30;82.60
36990;DHT22;22898;52.102;5.776;2023-07-22T09:33:01;25.50;86.00
36990;DHT22;22898;52.102;5.776;2023-07-22T09:35:45;26.10;84.30
36990;DHT22;22898;52.102;5.776;2023-07-22T09:38:11;26.20;81.90
36990;DHT22;22898;52.102;5.776;2023-07-22T09:40:40;26.40;81.60
36990;DHT22;22898;52.102;5.776;2023-07-22T09:43:08;26.40;80.80
36990;DHT22;22898;52.102;5.776;2023-07-22T09:45:34;25.60;83.00
36990;DHT22;22898;52.102;5.776;2023-07-22T09:48:00;25.10;84.80
36990;DHT22;22898;52.102;5.776;2023-07-22T09:50:27;25.10;84.80
36990;DHT22;22898;52.102;5.776;2023-07-22T09:52:56;25.40;84.90
36990;DHT22;22898;52.102;5.776;2023-07-22T09:55:25;25.80;82.70
36990;DHT22;22898;52.102;5.776;2023-07-22T09:57:54;25.60;83.60
36990;DHT22;22898;52.102;5.776;2023-07-22T10:00:20;25.90;81.20
36990;DHT22;22898;52.102;5.776;2023-07-22T10:02:48;26.70;80.80
36990;DHT22;22898;52.102;5.776;2023-07-22T10:05:16;27.00;80.80
36990;DHT22;22898;52.102;5.776;2023-07-22T10:07:54;26.40;80.40
36990;DHT22;22898;52.102;5.776;2023-07-22T10:10:23;25.60;81.20
36990;DHT22;22898;52.102;5.776;2023-07-22T10:12:49;25.30;82.30
36990;DHT22;22898;52.102;5.776;2023-07-22T10:15:16;25.50;81.80
36990;DHT22;22898;52.102;5.776;2023-07-22T10:17:43;25.10;83.10
36990;DHT22;22898;52.102;5.776;2023-07-22T10:20:10;24.80;84.20
36990;DHT22;22898;52.102;5.776;2023-07-22T10:22:42;24.80;84.90
36990;DHT22;22898;52.102;5.776;2023-07-22T10:25:11;25.10;84.70
36990;DHT22;22898;52.102;5.776;2023-07-22T10:27:37;25.40;83.50
36990;DHT22;22898;52.102;5.776;2023-07-22T10:30:06;25.50;83.40
36990;DHT22;22898;52.102;5.776;2023-07-22T10:32:39;25.70;82.80
36990;DHT22;22898;52.102;5.776;2023-07-22T10:37:54;25.80;81.90
36990;DHT22;22898;52.102;5.776;2023-07-22T10:40:28;25.00;83.80
36990;DHT22;22898;52.102;5.776;2023-07-22T10:43:17;25.00;84.40
36990;DHT22;22898;52.102;5.776;2023-07-22T10:45:56;25.80;82.10
36990;DHT22;22898;52.102;5.776;2023-07-22T10:48:25;25.60;82.10
36990;DHT22;22898;52.102;5.776;2023-07-22T10:50:54;25.60;81.60
36990;DHT22;22898;52.102;5.776;2023-07-22T10:53:22;25.30;82.30
36990;DHT22;22898;52.102;5.776;2023-07-22T10:58:32;25.10;83.80
36990;DHT22;22898;52.102;5.776;2023-07-22T11:01:25;25.50;83.50
36990;DHT22;22898;52.102;5.776;2023-07-22T11:04:21;25.90;81.70
36990;DHT22;22898;52.102;5.776;2023-07-22T11:14:25;25.90;81.30
36990;DHT22;22898;52.102;5.776;2023-07-22T11:16:51;25.40;83.10
36990;DHT22;22898;52.102;5.776;2023-07-22T11:19:18;24.90;86.20
36990;DHT22;22898;52.102;5.776;2023-07-22T11:21:46;24.80;86.10
36990;DHT22;22898;52.102;5.776;2023-07-22T11:24:12;24.70;87.20
36990;DHT22;22898;52.102;5.776;2023-07-22T11:26:38;24.40;88.20
36990;DHT22;22898;52.102;5.776;2023-07-22T11:29:05;24.40;88.10
36990;DHT22;22898;52.102;5.776;2023-07-22T11:31:34;24.60;88.40
36990;DHT22;22898;52.102;5.776;2023-07-22T11:34:02;24.80;86.30
36990;DHT22;22898;52.102;5.776;2023-07-22T11:36:28;25.00;87.20
36990;DHT22;22898;52.102;5.776;2023-07-22T11:38:53;25.20;85.20
36990;DHT22;22898;52.102;5.776;2023-07-22T11:41:24;24.90;85.70
36990;DHT22;22898;52.102;5.776;2023-07-22T11:43:50;24.90;86.30
36990;DHT22;22898;52.102;5.776;2023-07-22T11:46:15;25.00;86.20
36990;DHT22;22898;52.102;5.776;2023-07-22T11:48:49;25.30;85.40
36990;DHT22;22898;52.102;5.776;2023-07-22T11:51:17;25.40;84.40
36990;DHT22;22898;52.102;5.776;2023-07-22T11:53:46;25.20;85.80
36990;DHT22;22898;52.102;5.776;2023-07-22T11:56:17;25.50;84.60
36990;DHT22;22898;52.102;5.776;2023-07-22T11:58:42;25.90;83.00
36990;DHT22;22898;52.102;5.776;2023-07-22T12:01:10;26.00;83.50
36990;DHT22;22898;52.102;5.776;2023-07-22T12:03:36;25.90;81.60
36990;DHT22;22898;52.102;5.776;2023-07-22T12:06:03;25.90;82.70
36990;DHT22;22898;52.102;5.776;2023-07-22T12:08:28;26.30;81.30
36990;DHT22;22898;52.102;5.776;2023-07-22T12:11:00;26.40;80.60
36990;DHT22;22898;52.102;5.776;2023-07-22T12:13:26;26.40;80.80
36990;DHT22;22898;52.102;5.776;2023-07-22T12:16:02;26.90;79.50
36990;DHT22;22898;52.102;5.776;2023-07-22T12:18:40;26.60;79.20
36990;DHT22;22898;52.102;5.776;2023-07-22T12:21:05;25.90;81.30
36990;DHT22;22898;52.102;5.776;2023-07-22T12:23:31;26.20;80.90
36990;DHT22;22898;52.102;5.776;2023-07-22T12:25:57;26.60;80.60
36990;DHT22;22898;52.102;5.776;2023-07-22T12:28:22;26.60;79.80
36990;DHT22;22898;52.102;5.776;2023-07-22T12:30:48;26.20;81.10
36990;DHT22;22898;52.102;5.776;2023-07-22T12:33:14;26.00;81.90
36990;DHT22;22898;52.102;5.776;2023-07-22T12:35:39;25.60;82.30
36990;DHT22;22898;52.102;5.776;2023-07-22T12:38:05;24.90;86.30
36990;DHT22;22898;52.102;5.776;2023-07-22T12:40:31;23.90;91.20
36990;DHT22;22898;52.102;5.776;2023-07-22T12:42:57;22.70;94.70
36990;DHT22;22898;52.102;5.776;2023-07-22T12:45:22;22.00;98.10
36990;DHT22;22898;52.102;5.776;2023-07-22T12:47:48;22.20;98.80
36990;DHT22;22898;52.102;5.776;2023-07-22T12:50:14;22.10;99.80
36990;DHT22;22898;52.102;5.776;2023-07-22T12:52:39;22.10;99.90
36990;DHT22;22898;52.102;5.776;2023-07-22T12:55:05;22.10;99.90
36990;DHT22;22898;52.102;5.776;2023-07-22T12:57:31;22.40;99.90
36990;DHT22;22898;52.102;5.776;2023-07-22T12:59:56;22.80;99.90
36990;DHT22;22898;52.102;5.776;2023-07-22T13:02:22;23.10;99.50
36990;DHT22;22898;52.102;5.776;2023-07-22T13:04:48;23.40;98.50
36990;DHT22;22898;52.102;5.776;2023-07-22T13:07:13;23.20;98.60
36990;DHT22;22898;52.102;5.776;2023-07-22T13:09:39;23.40;98.50
36990;DHT22;22898;52.102;5.776;2023-07-22T13:12:05;23.50;98.00
36990;DHT22;22898;52.102;5.776;2023-07-22T13:14:31;23.70;98.20
36990;DHT22;22898;52.102;5.776;2023-07-22T13:16:57;24.10;97.60
36990;DHT22;22898;52.102;5.776;2023-07-22T13:19:22;24.40;97.00
36990;DHT22;22898;52.102;5.776;2023-07-22T13:21:48;24.70;96.40
36990;DHT22;22898;52.102;5.776;2023-07-22T13:24:13;24.70;96.50
36990;DHT22;22898;52.102;5.776;2023-07-22T13:26:39;25.10;96.00
36990;DHT22;22898;52.102;5.776;2023-07-22T13:29:05;25.30;95.40
36990;DHT22;22898;52.102;5.776;2023-07-22T13:31:30;24.90;95.50
36990;DHT22;22898;52.102;5.776;2023-07-22T13:33:56;24.80;95.50
36990;DHT22;22898;52.102;5.776;2023-07-22T13:36:22;24.80;95.40
36990;DHT22;22898;52.102;5.776;2023-07-22T13:38:47;25.10;95.30
36990;DHT22;22898;52.102;5.776;2023-07-22T13:41:13;25.20;94.40
36990;DHT22;22898;52.102;5.776;2023-07-22T13:43:38;25.40;94.40
36990;DHT22;22898;52.102;5.776;2023-07-22T13:46:04;25.80;94.10
36990;DHT22;22898;52.102;5.776;2023-07-22T13:48:29;26.00;93.30
36990;DHT22;22898;52.102;5.776;2023-07-22T13:50:55;25.90;93.60
36990;DHT22;22898;52.102;5.776;2023-07-22T13:53:20;25.60;94.40
36990;DHT22;22898;52.102;5.776;2023-07-22T13:55:46;25.40;94.10
36990;DHT22;22898;52.102;5.776;2023-07-22T13:58:12;25.00;94.30
36990;DHT22;22898;52.102;5.776;2023-07-22T14:00:37;24.70;95.10
36990;DHT22;22898;52.102;5.776;2023-07-22T14:03:03;24.30;94.50
36990;DHT22;22898;52.102;5.776;2023-07-22T14:05:29;23.80;94.80
36990;DHT22;22898;52.102;5.776;2023-07-22T14:07:54;23.60;95.60
36990;DHT22;22898;52.102;5.776;2023-07-22T14:10:20;23.80;95.40
36990;DHT22;22898;52.102;5.776;2023-07-22T14:12:45;24.10;95.00
36990;DHT22;22898;52.102;5.776;2023-07-22T14:15:12;24.10;94.50
36990;DHT22;22898;52.102;5.776;2023-07-22T14:17:37;23.90;94.90
36990;DHT22;22898;52.102;5.776;2023-07-22T14:20:04;24.00;94.30
36990;DHT22;22898;52.102;5.776;2023-07-22T14:22:30;24.00;94.30
36990;DHT22;22898;52.102;5.776;2023-07-22T14:24:56;24.10;94.10
36990;DHT22;22898;52.102;5.776;2023-07-22T14:27:21;24.30;93.80
36990;DHT22;22898;52.102;5.776;2023-07-22T14:29:47;24.50;93.10
36990;DHT22;22898;52.102;5.776;2023-07-22T14:32:12;24.50;92.70
36990;DHT22;22898;52.102;5.776;2023-07-22T14:34:38;24.80;92.80
36990;DHT22;22898;52.102;5.776;2023-07-22T14:37:04;25.10;92.10
36990;DHT22;22898;52.102;5.776;2023-07-22T14:39:30;25.40;91.70
36990;DHT22;22898;52.102;5.776;2023-07-22T14:41:55;25.50;91.70
36990;DHT22;22898;52.102;5.776;2023-07-22T14:44:21;25.70;91.30
36990;DHT22;22898;52.102;5.776;2023-07-22T14:46:46;25.80;90.80
36990;DHT22;22898;52.102;5.776;2023-07-22T14:49:12;25.80;91.10
36990;DHT22;22898;52.102;5.776;2023-07-22T14:51:38;25.70;91.00
36990;DHT22;22898;52.102;5.776;2023-07-22T14:54:04;25.90;90.90
36990;DHT22;22898;52.102;5.776;2023-07-22T14:56:29;26.10;90.50
36990;DHT22;22898;52.102;5.776;2023-07-22T14:58:55;26.40;90.40
36990;DHT22;22898;52.102;5.776;2023-07-22T15:01:21;26.60;87.90
36990;DHT22;22898;52.102;5.776;2023-07-22T15:03:47;26.30;89.70
36990;DHT22;22898;52.102;5.776;2023-07-22T15:06:13;26.10;89.30
36990;DHT22;22898;52.102;5.776;2023-07-22T15:08:38;26.00;89.40
36990;DHT22;22898;52.102;5.776;2023-07-22T15:11:04;26.20;90.00
36990;DHT22;22898;52.102;5.776;2023-07-22T15:13:30;26.40;88.00
36990;DHT22;22898;52.102;5.776;2023-07-22T15:15:55;26.30;88.20
36990;DHT22;22898;52.102;5.776;2023-07-22T15:18:22;26.20;88.10
36990;DHT22;22898;52.102;5.776;2023-07-22T15:20:50;26.10;88.90
36990;DHT22;22898;52.102;5.776;2023-07-22T15:23:16;26.20;87.80
36990;DHT22;22898;52.102;5.776;2023-07-22T15:25:42;26.20;88.30
36990;DHT22;22898;52.102;5.776;2023-07-22T15:28:07;26.30;87.70
36990;DHT22;22898;52.102;5.776;2023-07-22T15:30:33;26.20;88.50
36990;DHT22;22898;52.102;5.776;2023-07-22T15:32:58;26.30;86.30
36990;DHT22;22898;52.102;5.776;2023-07-22T15:35:24;25.80;87.70
36990;DHT22;22898;52.102;5.776;2023-07-22T15:37:49;25.70;87.50